createdAt,value
2022-10-18T00:01:30.990Z,74.14
2022-10-18T00:04:01.472Z,74.51
2022-10-18T00:06:31.114Z,74.17
2022-10-18T00:09:00.105Z,74.25
2022-10-18T00:11:29.271Z,74.27
2022-10-18T00:13:58.357Z,74.06
2022-10-18T00:16:27.591Z,73.53
2022-10-18T00:18:56.909Z,73.47
2022-10-18T00:21:27.545Z,73.45
2022-10-18T00:23:56.545Z,74.39
2022-10-18T00:26:26.408Z,74.39
2022-10-18T00:28:56.381Z,74.67
2022-10-18T00:31:27.181Z,74.42
2022-10-18T00:33:56.554Z,75.02
2022-10-18T00:36:27.502Z,74.79
2022-10-18T00:38:56.587Z,75.40
2022-10-18T00:41:26.660Z,75.14
2022-10-18T00:43:56.537Z,75.28
2022-10-18T00:46:26.679Z,74.58
2022-10-18T00:48:55.942Z,74.15
2022-10-18T00:51:25.242Z,74.10
2022-10-18T00:53:55.638Z,74.60
2022-10-18T00:56:24.954Z,75.31
2022-10-18T00:58:54.086Z,74.90
2022-10-18T01:01:25.970Z,75.01
2022-10-18T01:03:57.776Z,75.66
2022-10-18T01:06:28.419Z,74.83
2022-10-18T01:09:02.377Z,75.27
2022-10-18T01:11:35.288Z,74.74
2022-10-18T01:14:07.364Z,75.95
2022-10-18T01:16:37.522Z,75.01
2022-10-18T01:19:10.215Z,74.97
2022-10-18T01:21:41.921Z,75.16
2022-10-18T01:24:23.636Z,75.04
2022-10-18T01:27:01.586Z,75.40
2022-10-18T01:29:34.140Z,74.91
2022-10-18T01:32:05.227Z,75.74
2022-10-18T01:34:35.557Z,76.08
2022-10-18T01:37:06.283Z,75.36
2022-10-18T01:39:35.702Z,75.71
2022-10-18T01:42:05.718Z,75.26
2022-10-18T01:44:34.959Z,75.74
2022-10-18T01:47:05.697Z,75.87
2022-10-18T01:49:34.677Z,75.63
2022-10-18T01:52:04.039Z,75.78
2022-10-18T01:54:34.327Z,75.25
2022-10-18T01:57:04.804Z,75.23
2022-10-18T01:59:40.312Z,75.60
2022-10-18T02:02:32.759Z,75.86
2022-10-18T02:05:02.855Z,75.67
2022-10-18T02:07:33.562Z,75.52
2022-10-18T02:10:04.056Z,75.14
2022-10-18T02:12:33.761Z,74.92
2022-10-18T02:15:02.863Z,74.79
2022-10-18T02:17:33.663Z,75.25
2022-10-18T02:20:03.060Z,75.61
2022-10-18T02:22:33.050Z,74.38
2022-10-18T02:25:03.848Z,74.73
2022-10-18T02:27:33.028Z,74.51
2022-10-18T02:30:02.000Z,74.41
2022-10-18T02:32:34.230Z,75.19
2022-10-18T02:35:06.565Z,75.54
2022-10-18T02:37:36.678Z,74.94
2022-10-18T02:40:06.187Z,75.27
2022-10-18T02:42:36.095Z,75.54
2022-10-18T02:45:05.515Z,76.11
2022-10-18T02:47:36.164Z,76.08
2022-10-18T02:50:05.381Z,76.75
2022-10-18T02:52:34.730Z,76.22
2022-10-18T02:55:03.717Z,75.01
2022-10-18T02:57:33.283Z,74.94
2022-10-18T03:00:02.654Z,74.85
2022-10-18T03:02:31.935Z,76.19
2022-10-18T03:05:02.504Z,75.06
2022-10-18T03:07:32.004Z,76.42
2022-10-18T03:10:01.195Z,74.58
2022-10-18T03:12:30.471Z,73.97
2022-10-18T03:14:59.545Z,73.99
2022-10-18T03:17:28.884Z,75.28
2022-10-18T03:19:58.087Z,75.58
2022-10-18T03:25:03.145Z,73.92
2022-10-18T03:27:32.542Z,74.42
2022-10-18T03:30:01.817Z,74.10
2022-10-18T03:32:31.464Z,73.62
2022-10-18T03:35:00.690Z,73.54
2022-10-18T03:37:31.403Z,73.55
2022-10-18T03:40:00.523Z,73.51
2022-10-18T03:42:30.181Z,73.45
2022-10-18T03:44:59.597Z,74.38
2022-10-18T03:47:28.797Z,74.01
2022-10-18T03:49:57.834Z,73.24
2022-10-18T03:52:27.075Z,72.97
2022-10-18T03:54:57.583Z,72.88
2022-10-18T03:57:26.757Z,72.80
2022-10-18T03:59:55.754Z,73.52
2022-10-18T04:02:24.923Z,73.32
2022-10-18T04:04:53.915Z,73.19
2022-10-18T04:07:23.126Z,73.27
2022-10-18T04:09:52.049Z,73.21
2022-10-18T04:12:25.829Z,73.08
2022-10-18T04:14:57.561Z,73.19
2022-10-18T04:17:26.913Z,73.23
2022-10-18T04:19:55.906Z,73.10
2022-10-18T04:22:25.079Z,73.14
2022-10-18T04:24:54.428Z,73.14
2022-10-18T04:27:25.329Z,73.02
2022-10-18T04:29:54.304Z,72.70
2022-10-18T04:32:23.551Z,72.70
2022-10-18T04:34:52.540Z,72.91
2022-10-18T04:37:21.897Z,72.66
2022-10-18T04:39:53.520Z,72.76
2022-10-18T04:42:24.611Z,72.66
2022-10-18T04:44:53.684Z,72.53
2022-10-18T04:47:22.934Z,72.87
2022-10-18T04:49:51.969Z,72.97
2022-10-18T04:52:21.239Z,72.86
2022-10-18T04:54:50.255Z,73.07
2022-10-18T04:57:19.497Z,73.03
2022-10-18T04:59:49.902Z,72.82
2022-10-18T05:02:19.248Z,72.94
2022-10-18T05:04:48.263Z,72.75
2022-10-18T05:07:17.567Z,72.86
2022-10-18T05:09:46.565Z,73.03
2022-10-18T05:12:15.915Z,72.83
2022-10-18T05:14:44.839Z,73.18
2022-10-18T05:17:15.562Z,73.04
2022-10-18T05:19:44.636Z,72.94
2022-10-18T05:22:13.896Z,72.87
2022-10-18T05:24:42.888Z,73.04
2022-10-18T05:27:12.133Z,72.84
2022-10-18T05:29:41.224Z,72.84
2022-10-18T05:32:10.522Z,72.98
2022-10-18T05:34:40.948Z,73.03
2022-10-18T05:37:10.193Z,72.99
2022-10-18T05:39:39.132Z,72.86
2022-10-18T05:42:08.878Z,73.17
2022-10-18T05:44:37.873Z,73.00
2022-10-18T05:47:07.163Z,73.03
2022-10-18T05:49:36.215Z,72.93
2022-10-18T05:52:07.056Z,72.82
2022-10-18T05:54:36.081Z,72.96
2022-10-18T05:57:05.387Z,73.10
2022-10-18T05:59:34.398Z,72.96
2022-10-18T06:02:03.635Z,72.87
2022-10-18T06:04:32.584Z,72.95
2022-10-18T06:07:01.815Z,73.08
2022-10-18T06:09:32.285Z,72.97
2022-10-18T06:12:01.674Z,72.94
2022-10-18T06:14:30.659Z,73.07
2022-10-18T06:16:59.927Z,72.85
2022-10-18T06:19:28.897Z,73.07
2022-10-18T06:21:58.133Z,73.09
2022-10-18T06:24:27.876Z,72.81
2022-10-18T06:26:58.600Z,72.93
2022-10-18T06:29:27.694Z,73.20
2022-10-18T06:31:56.950Z,72.87
2022-10-18T06:34:25.952Z,72.80
2022-10-18T06:36:56.706Z,72.95
2022-10-18T06:39:27.696Z,72.85
2022-10-18T06:41:58.320Z,72.90
2022-10-18T06:44:27.353Z,72.81
2022-10-18T06:46:56.584Z,72.72
2022-10-18T06:49:25.597Z,73.50
2022-10-18T06:51:57.497Z,73.39
2022-10-18T06:54:26.474Z,73.29
2022-10-18T06:56:58.896Z,72.66
2022-10-18T06:59:31.105Z,72.75
2022-10-18T07:02:00.883Z,73.36
2022-10-18T07:04:30.460Z,73.39
2022-10-18T07:07:03.162Z,72.89
2022-10-18T07:09:34.938Z,72.33
2022-10-18T07:15:59.397Z,72.36
2022-10-18T07:18:43.382Z,72.16
2022-10-18T07:21:13.252Z,71.97
2022-10-18T07:23:43.454Z,72.35
2022-10-18T07:26:13.322Z,72.60
2022-10-18T07:28:42.726Z,72.77
2022-10-18T07:31:11.925Z,72.62
2022-10-18T07:33:43.139Z,72.69
2022-10-18T07:36:12.387Z,72.59
2022-10-18T07:38:41.849Z,72.78
2022-10-18T07:41:12.364Z,72.63
2022-10-18T07:44:30.798Z,72.64
2022-10-18T07:46:59.911Z,73.08
2022-10-18T07:49:30.678Z,72.78
2022-10-18T07:51:59.968Z,72.66
2022-10-18T07:54:29.317Z,72.73
2022-10-18T07:56:58.541Z,72.67
2022-10-18T07:59:29.189Z,72.72
2022-10-18T08:01:58.270Z,72.84
2022-10-18T08:04:27.705Z,72.40
2022-10-18T08:06:58.363Z,72.67
2022-10-18T08:09:30.462Z,72.18
2022-10-18T08:11:59.515Z,73.18
2022-10-18T08:14:28.738Z,72.56
2022-10-18T08:16:57.753Z,72.29
2022-10-18T08:19:27.064Z,72.76
2022-10-18T08:21:56.159Z,72.26
2022-10-18T08:24:27.638Z,72.66
2022-10-18T08:26:57.035Z,72.72
2022-10-18T08:29:29.327Z,72.64
2022-10-18T08:32:00.762Z,71.95
2022-10-18T08:34:30.300Z,71.72
2022-10-18T08:36:59.521Z,71.76
2022-10-18T08:39:30.485Z,72.54
2022-10-18T08:42:17.067Z,72.29
2022-10-18T08:44:48.830Z,71.90
2022-10-18T08:47:18.802Z,71.83
2022-10-18T08:49:49.079Z,72.38
2022-10-18T08:52:18.789Z,72.50
2022-10-18T08:54:56.615Z,72.24
2022-10-18T08:57:25.802Z,71.83
2022-10-18T08:59:55.218Z,71.56
2022-10-18T09:02:29.103Z,72.20
2022-10-18T09:04:59.174Z,72.10
2022-10-18T09:07:41.187Z,71.61
2022-10-18T09:10:16.365Z,71.78
2022-10-18T09:12:51.060Z,72.16
2022-10-18T09:15:21.811Z,71.36
2022-10-18T09:17:55.538Z,71.40
2022-10-18T09:20:25.716Z,71.41
2022-10-18T09:22:56.244Z,71.93
2022-10-18T09:25:28.088Z,71.52
2022-10-18T09:27:57.762Z,70.63
2022-10-18T09:30:39.865Z,70.37
2022-10-18T09:33:16.871Z,70.02
2022-10-18T09:35:49.397Z,70.84
2022-10-18T09:38:19.518Z,69.70
2022-10-18T09:40:52.464Z,68.50
2022-10-18T09:43:22.673Z,69.59
2022-10-18T09:45:52.351Z,70.60
2022-10-18T09:48:23.884Z,69.63
2022-10-18T09:50:53.865Z,70.17
2022-10-18T09:53:23.884Z,69.96
2022-10-18T09:55:56.795Z,69.56
2022-10-18T09:58:25.887Z,70.24
2022-10-18T10:00:55.097Z,69.69
2022-10-18T10:03:24.093Z,69.53
2022-10-18T10:06:03.265Z,69.60
2022-10-18T10:08:35.692Z,69.03
2022-10-18T10:11:06.415Z,69.30
2022-10-18T10:13:35.461Z,69.57
2022-10-18T10:16:04.786Z,66.86
2022-10-18T10:18:35.008Z,69.45
2022-10-18T10:21:05.804Z,66.54
2022-10-18T10:23:37.064Z,65.78
2022-10-18T10:26:08.275Z,66.85
2022-10-18T10:28:38.513Z,65.83
2022-10-18T10:31:18.230Z,65.11
2022-10-18T10:33:47.655Z,67.44
2022-10-18T10:36:18.132Z,67.16
2022-10-18T10:38:47.082Z,66.81
2022-10-18T10:41:21.385Z,66.74
2022-10-18T10:43:50.477Z,67.20
2022-10-18T10:46:20.145Z,65.62
2022-10-18T10:48:50.031Z,65.69
2022-10-18T10:51:20.953Z,61.58
2022-10-18T10:53:52.228Z,64.92
2022-10-18T10:56:27.444Z,61.97
2022-10-18T10:58:56.859Z,64.26
2022-10-18T11:01:28.430Z,63.45
2022-10-18T11:03:58.227Z,64.39
2022-10-18T11:06:42.320Z,61.57
2022-10-18T11:09:32.370Z,60.29
2022-10-18T11:12:07.392Z,60.30
2022-10-18T11:14:37.882Z,63.18
2022-10-18T11:17:14.638Z,62.95
2022-10-18T11:19:46.360Z,62.40
2022-10-18T11:22:16.922Z,63.76
2022-10-18T11:24:46.136Z,63.82
2022-10-18T11:27:18.492Z,63.67
2022-10-18T11:29:54.328Z,64.10
2022-10-18T11:32:25.720Z,64.06
2022-10-18T11:34:58.281Z,63.08
2022-10-18T11:37:34.639Z,63.83
2022-10-18T11:40:10.089Z,62.55
2022-10-18T11:42:42.613Z,62.34
2022-10-18T11:45:15.266Z,63.54
2022-10-18T11:47:52.298Z,63.32
2022-10-18T11:50:26.779Z,63.11
2022-10-18T11:52:58.006Z,63.37
2022-10-18T11:55:41.782Z,62.29
2022-10-18T11:58:16.430Z,63.40
2022-10-18T12:00:49.227Z,63.21
2022-10-18T12:03:24.178Z,63.83
2022-10-18T12:05:53.374Z,62.76
2022-10-18T12:08:23.184Z,61.46
2022-10-18T12:11:04.735Z,63.80
2022-10-18T12:13:38.387Z,64.15
2022-10-18T12:16:07.953Z,63.79
2022-10-18T12:18:37.332Z,63.47
2022-10-18T12:21:06.460Z,63.31
2022-10-18T12:23:38.227Z,63.47
2022-10-18T12:26:08.365Z,63.45
2022-10-18T12:28:42.962Z,63.63
2022-10-18T12:31:14.931Z,63.40
2022-10-18T12:33:45.515Z,63.37
2022-10-18T12:36:18.038Z,63.63
2022-10-18T12:38:47.620Z,64.29
2022-10-18T12:41:18.397Z,63.62
2022-10-18T12:43:53.830Z,63.39
2022-10-18T12:46:22.850Z,63.50
2022-10-18T12:48:52.756Z,63.27
2022-10-18T12:51:22.224Z,62.66
2022-10-18T12:53:53.363Z,63.78
2022-10-18T12:56:42.171Z,63.57
2022-10-18T12:59:29.262Z,63.14
2022-10-18T13:02:16.793Z,63.12
2022-10-18T13:04:46.096Z,63.51
2022-10-18T13:07:34.796Z,63.71
2022-10-18T13:10:22.616Z,63.73
2022-10-18T13:12:54.641Z,63.99
2022-10-18T13:15:40.364Z,63.78
2022-10-18T13:18:16.127Z,63.74
2022-10-18T13:20:45.893Z,63.56
2022-10-18T13:25:52.897Z,63.27
2022-10-18T13:28:24.151Z,63.98
2022-10-18T13:30:54.452Z,63.54
2022-10-18T13:33:34.843Z,63.33
2022-10-18T13:36:05.523Z,63.44
2022-10-18T13:38:41.679Z,63.61
2022-10-18T13:41:12.018Z,63.67
2022-10-18T13:44:04.852Z,63.57
2022-10-18T13:46:52.789Z,63.27
2022-10-18T13:49:26.125Z,63.56
2022-10-18T13:51:57.336Z,63.72
2022-10-18T13:54:40.370Z,64.19
2022-10-18T13:57:15.154Z,64.31
2022-10-18T13:59:51.779Z,64.21
2022-10-18T14:02:50.950Z,64.16
2022-10-18T14:05:25.489Z,63.94
2022-10-18T14:07:58.218Z,63.89
2022-10-18T14:10:43.847Z,63.65
2022-10-18T14:13:18.606Z,63.65
2022-10-18T14:15:49.782Z,63.55
2022-10-18T14:18:22.532Z,63.58
2022-10-18T14:21:12.259Z,63.69
2022-10-18T14:23:43.493Z,64.06
2022-10-18T14:26:14.802Z,63.73
2022-10-18T14:29:00.472Z,63.52
2022-10-18T14:31:29.696Z,63.71
2022-10-18T14:33:59.202Z,63.74
2022-10-18T14:36:31.147Z,64.15
2022-10-18T14:39:00.852Z,64.13
2022-10-18T14:41:30.240Z,63.89
2022-10-18T14:44:13.279Z,63.79
2022-10-18T14:46:43.367Z,64.10
2022-10-18T14:49:12.908Z,63.68
2022-10-18T14:51:43.805Z,63.60
2022-10-18T14:56:48.901Z,63.60
2022-10-18T14:59:19.308Z,63.66
2022-10-18T15:01:55.767Z,64.15
2022-10-18T15:04:31.179Z,64.08
2022-10-18T15:07:02.105Z,64.24
2022-10-18T15:09:31.692Z,64.13
2022-10-18T15:12:00.822Z,63.66
2022-10-18T15:14:30.233Z,63.67
2022-10-18T15:17:00.851Z,64.37
2022-10-18T15:19:33.817Z,64.51
2022-10-18T15:22:31.237Z,64.34
2022-10-18T15:25:14.701Z,64.06
2022-10-18T15:27:45.326Z,63.86
2022-10-18T15:30:21.855Z,65.51
2022-10-18T15:32:51.613Z,64.51
2022-10-18T15:35:25.879Z,65.83
2022-10-18T15:37:57.419Z,65.32
2022-10-18T15:40:39.556Z,64.29
2022-10-18T15:43:23.330Z,64.29
2022-10-18T15:45:53.086Z,63.92
2022-10-18T15:48:33.309Z,64.30
2022-10-18T15:51:04.833Z,64.61
2022-10-18T15:53:45.701Z,64.13
2022-10-18T15:56:27.967Z,64.23
2022-10-18T15:58:58.119Z,64.08
2022-10-18T16:01:32.557Z,64.23
2022-10-18T16:04:01.682Z,64.15
2022-10-18T16:06:30.955Z,64.11
2022-10-18T16:09:01.328Z,64.83
2022-10-18T16:11:31.007Z,64.74
2022-10-18T16:14:00.652Z,64.63
2022-10-18T16:16:30.497Z,64.87
2022-10-18T16:18:59.477Z,64.38
2022-10-18T16:21:29.374Z,64.41
2022-10-18T16:23:58.465Z,65.13
2022-10-18T16:26:29.269Z,64.74
2022-10-18T16:28:58.475Z,64.22
2022-10-18T16:31:28.716Z,64.53
2022-10-18T16:33:58.110Z,64.55
2022-10-18T16:36:29.197Z,64.73
2022-10-18T16:38:59.074Z,64.75
2022-10-18T16:41:29.889Z,64.60
2022-10-18T16:43:58.912Z,64.56
2022-10-18T16:46:29.088Z,64.40
2022-10-18T16:48:58.267Z,64.16
2022-10-18T16:51:27.546Z,64.64
2022-10-18T16:53:56.624Z,64.56
2022-10-18T16:56:26.798Z,65.27
2022-10-18T16:59:17.800Z,65.81
2022-10-18T17:01:48.545Z,65.91
2022-10-18T17:04:17.596Z,66.04
2022-10-18T17:06:47.677Z,65.56
2022-10-18T17:09:16.945Z,65.62
2022-10-18T17:11:57.068Z,65.78
2022-10-18T17:14:36.542Z,65.10
2022-10-18T17:17:07.292Z,65.64
2022-10-18T17:19:36.273Z,66.07
2022-10-18T17:22:05.477Z,65.56
2022-10-18T17:24:34.673Z,65.60
2022-10-18T17:27:04.090Z,65.32
2022-10-18T17:29:33.163Z,65.00
2022-10-18T17:32:02.372Z,65.40
2022-10-18T17:34:32.788Z,65.57
2022-10-18T17:37:02.012Z,65.56
2022-10-18T17:39:31.140Z,65.63
2022-10-18T17:42:00.570Z,66.09
2022-10-18T17:44:29.582Z,65.31
2022-10-18T17:47:00.316Z,65.52
2022-10-18T17:49:29.416Z,65.83
2022-10-18T17:52:04.562Z,67.25
2022-10-18T17:54:36.112Z,66.36
2022-10-18T17:57:05.470Z,66.04
2022-10-18T17:59:34.456Z,65.81
2022-10-18T18:02:03.712Z,65.20
2022-10-18T18:04:32.692Z,64.84
2022-10-18T18:07:04.595Z,65.04
2022-10-18T18:09:33.567Z,64.63
2022-10-18T18:12:02.823Z,65.16
2022-10-18T18:14:34.629Z,65.44
2022-10-18T18:17:04.028Z,64.96
2022-10-18T18:19:33.241Z,66.32
2022-10-18T18:22:04.923Z,66.32
2022-10-18T18:24:33.926Z,65.93
2022-10-18T18:27:03.322Z,66.39
2022-10-18T18:29:32.618Z,66.35
2022-10-18T18:32:07.983Z,66.97
2022-10-18T18:34:40.848Z,66.58
2022-10-18T18:37:17.814Z,66.75
2022-10-18T18:39:52.159Z,66.94
2022-10-18T18:42:44.045Z,66.42
2022-10-18T18:45:13.402Z,66.12
2022-10-18T18:47:54.107Z,66.83
2022-10-18T18:50:50.171Z,65.61
2022-10-18T18:53:29.411Z,66.17
2022-10-18T19:03:43.159Z,65.17
2022-10-18T19:06:53.539Z,65.03
2022-10-18T19:09:37.995Z,65.18
2022-10-18T19:12:29.115Z,65.01
2022-10-18T19:15:12.154Z,65.16
2022-10-18T19:18:08.745Z,65.17
2022-10-18T19:20:57.402Z,65.63
2022-10-18T19:23:37.057Z,64.91
2022-10-18T19:26:21.228Z,64.78
2022-10-18T19:28:50.522Z,64.90
2022-10-18T19:31:20.042Z,64.99
2022-10-18T19:33:59.400Z,64.82
2022-10-18T19:36:29.634Z,64.96
2022-10-18T19:38:58.856Z,64.86
2022-10-18T19:41:29.946Z,64.80
2022-10-18T19:44:01.097Z,65.30
2022-10-18T19:46:30.401Z,65.38
2022-10-18T19:48:59.416Z,65.28
2022-10-18T19:51:28.750Z,65.63
2022-10-18T19:53:58.440Z,65.70
2022-10-18T19:56:29.785Z,66.39
2022-10-18T19:58:59.103Z,66.64
2022-10-18T20:01:30.305Z,66.11
2022-10-18T20:03:59.919Z,65.79
2022-10-18T20:06:32.544Z,66.28
2022-10-18T20:09:01.962Z,66.17
2022-10-18T20:11:37.465Z,65.66
2022-10-18T20:14:06.837Z,65.72
2022-10-18T20:16:38.738Z,66.58
2022-10-18T20:19:12.461Z,66.29
2022-10-18T20:21:44.313Z,66.22
2022-10-18T20:24:22.656Z,68.01
2022-10-18T20:26:53.958Z,67.36
2022-10-18T20:29:25.478Z,66.78
2022-10-18T20:31:55.866Z,66.36
2022-10-18T20:34:27.625Z,66.71
2022-10-18T20:36:57.020Z,67.43
2022-10-18T20:39:26.644Z,68.06
2022-10-18T20:41:59.627Z,66.80
2022-10-18T20:44:32.115Z,67.00
2022-10-18T20:47:03.740Z,66.84
2022-10-18T20:49:32.982Z,66.73
2022-10-18T20:52:05.198Z,66.71
2022-10-18T20:54:36.208Z,66.26
2022-10-18T20:57:07.372Z,67.61
2022-10-18T20:59:40.572Z,66.94
2022-10-18T21:02:13.452Z,66.86
2022-10-18T21:04:43.135Z,66.90
2022-10-18T21:07:13.515Z,66.91
2022-10-18T21:09:42.619Z,66.87
2022-10-18T21:12:15.040Z,67.55
2022-10-18T21:14:44.017Z,67.30
2022-10-18T21:17:13.381Z,67.74
2022-10-18T21:19:42.499Z,67.08
2022-10-18T21:22:11.770Z,67.17
2022-10-18T21:24:42.547Z,67.54
2022-10-18T21:27:11.879Z,67.65
2022-10-18T21:29:42.274Z,67.35
2022-10-18T21:32:14.313Z,66.71
2022-10-18T21:34:43.364Z,66.70
2022-10-18T21:37:12.620Z,67.64
2022-10-18T21:39:42.356Z,68.64
2022-10-18T21:42:12.453Z,68.71
2022-10-18T21:44:42.938Z,68.33
2022-10-18T21:47:12.255Z,68.42
2022-10-18T21:49:41.391Z,68.20
2022-10-18T21:52:10.678Z,67.33
2022-10-18T21:54:39.864Z,68.20
2022-10-18T21:57:09.141Z,67.59
2022-10-18T21:59:38.136Z,67.91
2022-10-18T22:02:08.746Z,68.05
2022-10-18T22:04:37.706Z,67.70
2022-10-18T22:07:06.846Z,67.59
2022-10-18T22:09:35.758Z,66.98
2022-10-18T22:12:05.043Z,66.72
2022-10-18T22:14:33.974Z,67.09
2022-10-18T22:17:03.121Z,66.53
2022-10-18T22:19:33.536Z,66.85
2022-10-18T22:22:02.720Z,67.04
2022-10-18T22:24:31.725Z,66.87
2022-10-18T22:27:00.963Z,66.84
2022-10-18T22:29:29.851Z,66.66
2022-10-18T22:31:59.018Z,66.58
2022-10-18T22:34:28.583Z,66.90
2022-10-18T22:36:59.561Z,66.48
2022-10-18T22:39:28.442Z,66.58
2022-10-18T22:41:57.583Z,66.80
2022-10-18T22:44:26.758Z,66.86
2022-10-18T22:46:56.009Z,66.57
2022-10-18T22:49:24.871Z,66.97
2022-10-18T22:51:54.032Z,66.91
2022-10-18T22:54:24.315Z,66.79
2022-10-18T22:56:53.519Z,66.74
2022-10-18T22:59:22.418Z,66.49
2022-10-18T23:01:51.570Z,67.23
2022-10-18T23:04:20.523Z,68.55
2022-10-18T23:06:49.695Z,67.95
2022-10-18T23:09:18.590Z,68.42
2022-10-18T23:11:50.974Z,68.07
2022-10-18T23:14:19.967Z,67.87
2022-10-18T23:16:49.204Z,68.15
2022-10-18T23:19:18.187Z,68.84
2022-10-18T23:21:47.360Z,68.31
2022-10-18T23:24:16.286Z,68.79
2022-10-18T23:26:45.385Z,67.64
2022-10-18T23:29:15.795Z,66.81
2022-10-18T23:31:44.926Z,66.69
2022-10-18T23:34:13.836Z,67.09
2022-10-18T23:39:16.897Z,68.37
2022-10-18T23:41:46.166Z,67.50
2022-10-18T23:44:16.568Z,68.01
2022-10-18T23:46:45.784Z,67.91
2022-10-18T23:49:15.035Z,68.50
2022-10-18T23:51:44.284Z,67.50
2022-10-18T23:54:13.213Z,67.04
2022-10-18T23:56:42.391Z,67.32
2022-10-18T23:59:11.340Z,67.39
